Time;durP1;ratioP1;P1;durP2;ratioP2;P2;SDS_P1;SDS_P2;PMS_P1;PMS_P2;Temp;Humidity;BMP_temperature;BMP_pressure;BME280_temperature;BME280_humidity;BME280_pressure;Samples;Min_cycle;Max_cycle;Signal;HPM_P1;HPM_P2
2021/04/25 00:01:56;;;;;;;17.73;10.07;;;5.80;99.90;;;;;;5073511;28;20649;-77
2021/04/25 00:04:22;;;;;;;21.83;12.97;;;5.90;99.90;;;;;;5072894;28;20650;-77
2021/04/25 00:06:49;;;;;;;19.77;14.27;;;5.90;99.90;;;;;;5073234;28;20185;-77
2021/04/25 00:09:15;;;;;;;21.30;13.53;;;5.80;99.90;;;;;;5054945;28;20658;-77
2021/04/25 00:11:41;;;;;;;22.40;13.33;;;5.80;99.90;;;;;;5072872;28;20426;-77
2021/04/25 00:14:07;;;;;;;14.60;8.77;;;5.80;99.90;;;;;;5072887;28;20581;-77
2021/04/25 00:16:34;;;;;;;12.60;8.97;;;5.70;99.90;;;;;;5072862;28;20264;-77
2021/04/25 00:19:00;;;;;;;14.27;8.77;;;5.70;99.90;;;;;;5072793;28;20220;-77
2021/04/25 00:21:26;;;;;;;12.90;8.40;;;5.70;99.90;;;;;;5054764;28;20693;-77
2021/04/25 00:23:54;;;;;;;14.03;9.47;;;5.60;99.90;;;;;;5054838;28;20654;-77
2021/04/25 00:26:19;;;;;;;17.70;10.27;;;5.60;99.90;;;;;;5054672;28;20427;-77
2021/04/25 00:28:45;;;;;;;13.70;9.57;;;5.50;99.90;;;;;;5072666;28;20201;-77
2021/04/25 00:31:11;;;;;;;17.27;9.03;;;5.50;99.90;;;;;;5072762;28;20181;-77
2021/04/25 00:33:36;;;;;;;10.30;6.67;;;5.50;99.90;;;;;;5072676;28;20224;-77
2021/04/25 00:36:03;;;;;;;12.93;7.23;;;5.50;99.90;;;;;;5072575;28;20657;-77
2021/04/25 00:38:29;;;;;;;14.03;7.87;;;5.50;99.90;;;;;;5072534;28;20193;-77
2021/04/25 00:40:54;;;;;;;12.27;7.10;;;5.40;99.90;;;;;;5054680;28;20185;-77
2021/04/25 00:43:20;;;;;;;13.17;8.40;;;5.50;99.90;;;;;;5072537;28;20264;-77
2021/04/25 00:45:46;;;;;;;16.33;7.50;;;5.50;99.90;;;;;;5071261;28;20454;-77
2021/04/25 00:48:12;;;;;;;10.43;6.63;;;5.40;99.90;;;;;;5071181;28;20634;-77
2021/04/25 00:50:37;;;;;;;11.37;7.37;;;5.40;99.90;;;;;;5073093;28;20639;-77
2021/04/25 00:53:04;;;;;;;10.40;6.80;;;5.30;99.90;;;;;;5072448;28;20288;-77
2021/04/25 00:55:30;;;;;;;10.20;6.53;;;5.30;99.90;;;;;;5072329;28;20212;-77
2021/04/25 00:57:57;;;;;;;9.97;7.10;;;5.20;99.90;;;;;;5071617;28;20181;-77
2021/04/25 01:00:24;;;;;;;11.87;7.07;;;5.20;99.90;;;;;;5075863;28;20259;-77
2021/04/25 01:02:50;;;;;;;8.53;6.30;;;5.10;99.90;;;;;;5076023;28;20178;-77
2021/04/25 01:05:17;;;;;;;12.00;6.73;;;5.10;99.90;;;;;;5075991;28;20465;-77
2021/04/25 01:07:43;;;;;;;10.10;7.23;;;5.10;99.90;;;;;;5058032;28;20176;-77
2021/04/25 01:10:10;;;;;;;10.03;6.83;;;5.00;99.90;;;;;;5075913;28;20207;-77
2021/04/25 01:12:37;;;;;;;14.83;7.37;;;5.10;99.90;;;;;;5074732;28;20211;-77
2021/04/25 01:15:04;;;;;;;8.00;6.23;;;5.00;99.90;;;;;;5075632;28;20415;-77
2021/04/25 01:17:30;;;;;;;9.97;6.30;;;5.00;99.90;;;;;;5075602;28;20504;-77
2021/04/25 01:20:00;;;;;;;10.20;6.80;;;5.00;99.90;;;;;;5074226;28;20412;-77
2021/04/25 01:22:26;;;;;;;8.83;6.47;;;5.10;99.90;;;;;;5075756;28;20623;-77
2021/04/25 01:24:52;;;;;;;10.60;6.80;;;5.10;99.90;;;;;;5075596;28;20468;-77
2021/04/25 01:27:19;;;;;;;12.10;6.03;;;5.10;99.90;;;;;;5075568;28;20315;-77
2021/04/25 01:29:45;;;;;;;13.40;6.40;;;5.00;99.90;;;;;;5057462;28;20208;-77
2021/04/25 01:32:10;;;;;;;11.07;6.63;;;5.00;99.90;;;;;;5057364;28;20184;-77
2021/04/25 01:34:36;;;;;;;10.87;6.33;;;4.90;99.90;;;;;;5075348;28;20165;-77
2021/04/25 01:37:02;;;;;;;9.63;6.90;;;5.00;99.90;;;;;;5075315;28;20181;-77
2021/04/25 01:39:29;;;;;;;10.77;6.67;;;4.90;99.90;;;;;;5073944;28;20196;-77
2021/04/25 01:41:55;;;;;;;11.17;6.67;;;4.80;99.90;;;;;;5075322;28;20183;-77
2021/04/25 01:44:21;;;;;;;11.00;6.17;;;4.80;99.90;;;;;;5075065;28;20634;-77
2021/04/25 01:46:46;;;;;;;8.30;5.90;;;4.70;99.90;;;;;;5075126;28;20450;-77
2021/04/25 01:49:14;;;;;;;10.70;6.17;;;4.80;99.90;;;;;;5075110;28;20197;-77
2021/04/25 01:51:41;;;;;;;12.00;6.87;;;4.60;99.90;;;;;;5057009;28;20668;-77
2021/04/25 01:54:06;;;;;;;10.10;7.30;;;4.60;99.90;;;;;;5056888;28;20482;-77
2021/04/25 01:56:32;;;;;;;9.67;7.23;;;4.70;99.90;;;;;;5075031;28;20200;-77
2021/04/25 01:58:58;;;;;;;16.37;6.40;;;4.80;99.90;;;;;;5074846;28;20271;-77
2021/04/25 02:01:25;;;;;;;10.73;6.10;;;4.80;99.90;;;;;;5074841;28;20635;-77
2021/04/25 02:03:51;;;;;;;12.20;7.27;;;4.80;99.90;;;;;;5056867;28;20419;-77
2021/04/25 02:06:17;;;;;;;12.50;7.60;;;4.80;99.90;;;;;;5056650;28;20465;-77
2021/04/25 02:08:43;;;;;;;16.30;8.17;;;4.80;99.90;;;;;;5074218;28;20524;-77
2021/04/25 02:11:08;;;;;;;12.50;7.40;;;4.80;99.90;;;;;;5074687;28;20173;-77
2021/04/25 02:13:34;;;;;;;10.57;7.00;;;4.90;99.90;;;;;;5074493;28;20201;-77
2021/04/25 02:16:00;;;;;;;12.43;6.80;;;4.80;99.90;;;;;;5074305;28;20183;-77
2021/04/25 02:18:25;;;;;;;10.23;7.00;;;4.70;99.90;;;;;;5074531;28;20207;-77
2021/04/25 02:20:51;;;;;;;13.23;7.70;;;4.70;99.90;;;;;;5074395;28;20199;-77
2021/04/25 02:23:17;;;;;;;13.17;6.60;;;4.70;99.90;;;;;;5056614;28;20212;-77
2021/04/25 02:25:43;;;;;;;12.00;6.80;;;4.70;99.90;;;;;;5074343;28;20199;-77
2021/04/25 02:28:09;;;;;;;10.67;7.03;;;4.70;99.90;;;;;;5074527;28;20176;-77
2021/04/25 02:30:36;;;;;;;11.67;7.77;;;4.60;99.90;;;;;;5074324;28;20181;-77
2021/04/25 02:33:02;;;;;;;11.33;7.67;;;4.60;99.90;;;;;;5074184;28;20197;-77
2021/04/25 02:35:29;;;;;;;8.73;6.03;;;4.60;99.90;;;;;;5073895;28;20415;-77
2021/04/25 02:37:56;;;;;;;10.07;7.03;;;4.40;99.90;;;;;;5074301;28;20477;-77
2021/04/25 02:40:24;;;;;;;11.37;6.60;;;4.50;99.90;;;;;;5074158;28;20431;-77
2021/04/25 02:42:50;;;;;;;12.70;7.90;;;4.40;99.90;;;;;;5086077;28;20411;-77
2021/04/25 02:45:18;;;;;;;10.60;7.03;;;4.50;99.90;;;;;;5096204;28;20418;-77
2021/04/25 02:47:47;;;;;;;13.87;7.17;;;4.30;99.90;;;;;;5097481;28;20646;-77
2021/04/25 02:50:15;;;;;;;11.40;7.03;;;4.40;99.90;;;;;;5065280;28;20438;-77
2021/04/25 02:52:41;;;;;;;13.23;7.13;;;4.40;99.90;;;;;;5073791;28;20193;-77
2021/04/25 02:55:07;;;;;;;10.00;7.43;;;4.40;99.90;;;;;;5073686;28;20184;-77
2021/04/25 02:57:33;;;;;;;13.13;7.23;;;4.40;99.90;;;;;;5055837;28;20514;-77
2021/04/25 02:59:59;;;;;;;13.47;7.13;;;4.40;99.90;;;;;;5073655;28;20302;-77
2021/04/25 03:02:25;;;;;;;10.20;6.57;;;4.40;99.90;;;;;;5055837;28;20268;-77
2021/04/25 03:04:50;;;;;;;10.63;6.50;;;4.40;99.90;;;;;;5073727;28;20180;-77
2021/04/25 03:07:17;;;;;;;10.07;6.27;;;4.40;99.90;;;;;;5072340;28;20183;-77
2021/04/25 03:09:43;;;;;;;11.60;6.93;;;4.30;99.90;;;;;;5073532;28;20189;-77
2021/04/25 03:12:09;;;;;;;11.67;6.47;;;4.40;99.90;;;;;;5073528;28;20403;-77
2021/04/25 03:14:35;;;;;;;13.17;5.87;;;4.30;99.90;;;;;;5073400;28;20481;-77
2021/04/25 03:17:00;;;;;;;11.50;6.87;;;4.20;99.90;;;;;;5055583;28;20185;-77
2021/04/25 03:19:26;;;;;;;12.13;6.60;;;4.10;99.90;;;;;;5073440;28;20196;-77
2021/04/25 03:21:52;;;;;;;11.17;7.57;;;4.00;99.90;;;;;;5071334;28;20192;-77
2021/04/25 03:24:19;;;;;;;12.87;7.37;;;4.00;99.90;;;;;;5055301;28;20184;-77
2021/04/25 03:26:45;;;;;;;12.30;7.03;;;3.90;99.90;;;;;;5055394;28;20177;-77
2021/04/25 03:29:11;;;;;;;13.17;6.57;;;3.90;99.90;;;;;;5073542;28;20431;-77
2021/04/25 03:31:36;;;;;;;11.80;7.17;;;3.90;99.90;;;;;;5055390;28;20419;-77
2021/04/25 03:34:02;;;;;;;9.97;6.53;;;3.70;99.90;;;;;;5073047;28;20627;-77
2021/04/25 03:36:28;;;;;;;9.53;6.67;;;3.60;99.90;;;;;;5073243;28;20176;-77
2021/04/25 03:38:53;;;;;;;11.23;6.63;;;3.70;99.90;;;;;;5073243;28;20195;-77
2021/04/25 03:41:19;;;;;;;9.83;6.60;;;3.60;99.90;;;;;;5055236;28;20200;-77
2021/04/25 03:43:45;;;;;;;10.07;6.13;;;3.60;99.90;;;;;;5073217;28;20177;-77
2021/04/25 03:46:11;;;;;;;10.67;6.10;;;3.60;99.90;;;;;;5073030;28;20172;-77
2021/04/25 03:48:37;;;;;;;15.63;6.67;;;3.30;99.90;;;;;;5055234;28;20442;-77
2021/04/25 03:51:02;;;;;;;11.60;6.63;;;3.40;99.90;;;;;;5072929;28;20179;-77
2021/04/25 03:53:28;;;;;;;10.80;7.30;;;3.40;99.90;;;;;;5055032;28;20201;-77
2021/04/25 03:55:53;;;;;;;13.37;6.30;;;3.50;99.90;;;;;;5073001;28;20177;-77
2021/04/25 03:58:19;;;;;;;10.23;6.33;;;3.60;99.90;;;;;;5073149;28;20197;-77
2021/04/25 04:00:45;;;;;;;14.20;6.20;;;3.60;99.90;;;;;;5073032;28;20173;-77
2021/04/25 04:03:10;;;;;;;10.43;5.87;;;3.50;99.90;;;;;;5071768;28;20235;-77
2021/04/25 04:05:36;;;;;;;12.60;7.33;;;3.50;99.90;;;;;;5072904;28;20639;-77
2021/04/25 04:08:02;;;;;;;11.20;6.80;;;3.40;99.90;;;;;;5073302;28;20260;-77
2021/04/25 04:10:27;;;;;;;13.50;6.93;;;3.40;99.90;;;;;;5055146;28;20341;-77
2021/04/25 04:12:53;;;;;;;11.53;6.80;;;3.40;99.90;;;;;;5054975;28;20200;-77
2021/04/25 04:15:19;;;;;;;9.87;6.47;;;3.30;99.90;;;;;;5072727;28;20254;-77
2021/04/25 04:17:44;;;;;;;13.87;7.03;;;3.20;99.90;;;;;;5072865;28;20333;-77
2021/04/25 04:20:11;;;;;;;14.30;7.50;;;3.20;99.90;;;;;;5072709;28;20548;-77
2021/04/25 04:22:37;;;;;;;12.00;7.13;;;3.20;99.90;;;;;;5073452;28;20500;-77
2021/04/25 04:25:03;;;;;;;12.37;6.53;;;3.20;99.90;;;;;;5054786;28;20413;-77
2021/04/25 04:27:29;;;;;;;11.23;6.27;;;3.10;99.90;;;;;;5072776;28;20181;-77
2021/04/25 04:29:55;;;;;;;14.43;6.13;;;3.10;99.90;;;;;;5054841;28;20439;-77
2021/04/25 04:32:20;;;;;;;13.30;6.93;;;3.10;99.90;;;;;;5072572;28;20542;-77
2021/04/25 04:34:46;;;;;;;11.00;7.10;;;3.10;99.90;;;;;;5076391;28;20181;-77
2021/04/25 04:37:12;;;;;;;10.73;6.37;;;3.00;99.90;;;;;;5076531;28;20196;-77
2021/04/25 04:39:38;;;;;;;11.03;6.10;;;3.00;99.90;;;;;;5058632;28;20287;-77
2021/04/25 04:42:04;;;;;;;11.57;6.63;;;2.80;99.90;;;;;;5076517;28;20169;-77
2021/04/25 04:44:30;;;;;;;9.90;6.93;;;2.90;99.90;;;;;;5076504;28;20172;-77
2021/04/25 04:46:55;;;;;;;11.87;6.77;;;2.90;99.90;;;;;;5076259;28;20196;-77
2021/04/25 04:49:21;;;;;;;9.97;5.77;;;3.00;99.90;;;;;;5058336;28;20207;-77
2021/04/25 04:51:46;;;;;;;10.67;6.10;;;2.90;99.90;;;;;;5076340;28;20188;-77
2021/04/25 04:54:12;;;;;;;11.77;6.27;;;2.90;99.90;;;;;;5076000;28;20199;-77
2021/04/25 04:56:38;;;;;;;10.10;6.10;;;2.90;99.90;;;;;;5076100;28;20641;-77
2021/04/25 04:59:04;;;;;;;11.90;6.93;;;3.00;99.90;;;;;;5076337;28;20224;-77
2021/04/25 05:01:29;;;;;;;16.97;7.30;;;3.00;99.90;;;;;;5076270;28;20172;-77
2021/04/25 05:03:55;;;;;;;10.77;6.23;;;3.00;99.90;;;;;;5076121;28;20173;-77
2021/04/25 05:06:21;;;;;;;8.80;5.90;;;3.00;99.90;;;;;;5075912;28;20180;-77
2021/04/25 05:08:46;;;;;;;8.80;6.13;;;3.30;99.90;;;;;;5075939;28;20228;-77
2021/04/25 05:11:13;;;;;;;13.77;6.10;;;3.30;99.90;;;;;;5075956;28;20642;-77
2021/04/25 05:13:39;;;;;;;8.20;6.50;;;3.40;99.90;;;;;;5076027;28;20235;-77
2021/04/25 05:16:04;;;;;;;12.07;7.23;;;3.40;99.90;;;;;;5076072;28;20443;-77
2021/04/25 05:18:30;;;;;;;13.97;7.23;;;3.60;99.90;;;;;;5075950;28;20208;-77
2021/04/25 05:20:56;;;;;;;11.77;7.27;;;3.80;99.90;;;;;;5074591;28;20630;-77
2021/04/25 05:23:22;;;;;;;13.30;7.30;;;3.90;99.90;;;;;;5076039;28;20681;-77
2021/04/25 05:25:47;;;;;;;11.60;7.13;;;4.10;99.90;;;;;;5057832;28;20180;-77
2021/04/25 05:28:13;;;;;;;9.80;7.27;;;4.30;99.90;;;;;;5075903;28;20177;-77
2021/04/25 05:30:39;;;;;;;15.50;7.17;;;4.40;99.90;;;;;;5057755;28;20180;-77
2021/04/25 05:33:05;;;;;;;10.43;6.50;;;4.50;99.90;;;;;;5075481;28;20655;-77
2021/04/25 05:35:30;;;;;;;13.07;7.67;;;4.60;99.90;;;;;;5075420;28;20184;-77
2021/04/25 05:37:56;;;;;;;10.90;7.17;;;4.70;99.90;;;;;;5057638;28;20179;-77
2021/04/25 05:40:22;;;;;;;13.53;7.47;;;4.80;99.90;;;;;;5075438;28;20674;-77
2021/04/25 05:42:48;;;;;;;11.97;7.57;;;4.90;99.90;;;;;;5075489;28;20184;-77
2021/04/25 05:45:22;;;;;;;11.97;7.93;;;5.00;99.90;;;;;;5073107;28;20423;-77
2021/04/25 05:47:51;;;;;;;14.40;8.27;;;5.10;99.90;;;;;;5075306;28;20199;-77
2021/04/25 05:50:17;;;;;;;14.10;8.33;;;5.20;99.90;;;;;;5057108;28;20446;-77
2021/04/25 05:52:43;;;;;;;11.40;7.70;;;5.30;99.90;;;;;;5075132;28;20197;-77
2021/04/25 05:55:09;;;;;;;13.57;8.20;;;5.40;99.90;;;;;;5074989;28;20424;-77
2021/04/25 05:57:35;;;;;;;13.10;8.17;;;5.50;99.90;;;;;;5075230;28;20239;-77
2021/04/25 06:00:01;;;;;;;11.43;7.27;;;5.60;99.90;;;;;;5060785;28;20201;-77
2021/04/25 06:02:27;;;;;;;12.83;8.00;;;5.60;99.90;;;;;;5090040;28;20178;-77
2021/04/25 06:04:53;;;;;;;13.07;8.10;;;5.70;99.90;;;;;;5098005;28;20191;-77
2021/04/25 06:07:18;;;;;;;14.17;7.77;;;5.80;99.90;;;;;;5081598;28;20177;-77
2021/04/25 06:09:44;;;;;;;15.47;7.90;;;5.80;99.90;;;;;;5077888;28;20193;-77
2021/04/25 06:12:13;;;;;;;12.40;7.67;;;6.00;99.90;;;;;;5056889;28;20181;-77
2021/04/25 06:14:39;;;;;;;13.97;8.40;;;6.00;99.90;;;;;;5074562;28;20255;-77
2021/04/25 06:17:05;;;;;;;11.10;8.07;;;6.10;99.90;;;;;;5056689;28;20181;-77
2021/04/25 06:19:31;;;;;;;13.73;8.13;;;6.20;99.90;;;;;;5074826;28;20606;-77
2021/04/25 06:21:57;;;;;;;12.67;8.27;;;6.30;99.90;;;;;;5073733;28;20189;-77
2021/04/25 06:24:22;;;;;;;12.47;8.77;;;6.30;99.90;;;;;;5073293;28;20184;-77
2021/04/25 06:26:48;;;;;;;12.50;8.30;;;6.40;99.90;;;;;;5074756;28;20237;-77
2021/04/25 06:29:14;;;;;;;15.67;8.70;;;6.40;99.90;;;;;;5074669;28;20193;-77
2021/04/25 06:31:39;;;;;;;14.00;8.33;;;6.50;99.90;;;;;;5074521;28;20186;-77
2021/04/25 06:34:05;;;;;;;12.20;8.40;;;6.60;99.90;;;;;;5056692;28;20210;-77
2021/04/25 06:36:31;;;;;;;15.07;9.13;;;6.70;99.90;;;;;;5075609;28;20511;-78
2021/04/25 06:38:56;;;;;;;14.93;8.53;;;6.80;99.90;;;;;;5075217;28;20266;-78
2021/04/25 06:41:23;;;;;;;14.37;9.03;;;6.90;99.90;;;;;;5057346;28;20200;-79
2021/04/25 06:43:49;;;;;;;15.00;8.83;;;6.90;99.90;;;;;;5075951;28;20181;-78
2021/04/25 06:46:14;;;;;;;12.80;8.73;;;7.00;99.90;;;;;;5062431;28;20181;-78
2021/04/25 06:48:40;;;;;;;16.07;9.30;;;7.20;99.90;;;;;;5082451;28;20675;-78
2021/04/25 06:51:06;;;;;;;10.97;8.83;;;7.30;99.90;;;;;;5084007;28;20189;-79
2021/04/25 06:53:31;;;;;;;13.53;8.97;;;7.40;99.90;;;;;;5058076;28;20545;-77
2021/04/25 06:55:57;;;;;;;13.57;9.73;;;7.50;99.90;;;;;;5073325;28;20204;-78
2021/04/25 06:58:23;;;;;;;13.67;9.57;;;7.60;99.90;;;;;;5083243;28;20243;-78
2021/04/25 07:00:48;;;;;;;15.50;9.53;;;7.60;99.90;;;;;;5078415;28;20644;-77
2021/04/25 07:03:14;;;;;;;13.63;9.53;;;7.70;99.90;;;;;;5073807;28;20186;-77
2021/04/25 07:05:40;;;;;;;18.27;9.80;;;7.70;99.90;;;;;;5073717;28;20212;-77
2021/04/25 07:08:07;;;;;;;15.37;9.60;;;7.70;99.90;;;;;;5072391;28;20182;-77
2021/04/25 07:10:33;;;;;;;12.87;8.77;;;7.90;99.90;;;;;;5055709;28;20270;-77
2021/04/25 07:12:58;;;;;;;14.00;8.90;;;8.10;99.90;;;;;;5073777;28;20275;-76
2021/04/25 07:15:24;;;;;;;14.63;9.93;;;8.20;99.90;;;;;;5055601;28;20186;-77
2021/04/25 07:17:51;;;;;;;13.37;9.40;;;8.40;99.90;;;;;;5073466;28;20612;-77
2021/04/25 07:20:18;;;;;;;14.53;9.13;;;8.60;99.90;;;;;;5055348;28;20208;-77
2021/04/25 07:22:44;;;;;;;15.70;9.30;;;8.70;99.90;;;;;;5072426;28;20180;-77
2021/04/25 07:25:11;;;;;;;12.37;8.50;;;8.90;99.90;;;;;;5055853;28;20208;-77
2021/04/25 07:27:37;;;;;;;12.63;9.23;;;9.00;99.90;;;;;;5073518;28;20545;-77
2021/04/25 07:30:08;;;;;;;13.73;8.07;;;9.10;99.90;;;;;;5073551;28;20200;-77
2021/04/25 07:32:34;;;;;;;10.70;7.97;;;9.30;99.90;;;;;;5055545;28;20182;-77
2021/04/25 07:35:00;;;;;;;12.03;7.87;;;9.30;99.90;;;;;;5073094;28;20248;-77
2021/04/25 07:37:26;;;;;;;12.27;8.63;;;9.50;99.90;;;;;;5073277;28;20255;-77
2021/04/25 07:39:51;;;;;;;10.97;8.23;;;10.20;99.90;;;;;;5073375;28;20202;-77
2021/04/25 07:42:18;;;;;;;17.80;8.17;;;11.10;99.90;;;;;;5073659;28;20181;-77
2021/04/25 07:44:44;;;;;;;14.07;8.23;;;11.80;99.90;;;;;;5055324;28;20235;-77
2021/04/25 07:47:10;;;;;;;11.80;7.93;;;12.50;99.90;;;;;;5073817;28;20207;-77
2021/04/25 07:49:36;;;;;;;12.40;8.07;;;12.80;99.90;;;;;;5073452;28;20201;-77
2021/04/25 07:52:03;;;;;;;14.00;8.70;;;13.30;99.90;;;;;;5055866;28;20177;-77
2021/04/25 07:54:28;;;;;;;12.10;8.83;;;13.80;99.90;;;;;;5073568;28;20681;-77
2021/04/25 07:56:55;;;;;;;10.80;8.20;;;14.20;99.70;;;;;;5073461;28;20173;-77
2021/04/25 07:59:21;;;;;;;16.37;8.77;;;14.50;98.60;;;;;;5056279;28;20199;-78
2021/04/25 08:01:47;;;;;;;12.13;7.83;;;14.80;97.80;;;;;;5073328;28;20176;-77
2021/04/25 08:04:12;;;;;;;12.60;8.40;;;15.30;96.60;;;;;;5074239;28;20637;-78
2021/04/25 08:06:38;;;;;;;10.63;7.90;;;15.60;94.40;;;;;;5056214;28;20181;-78
2021/04/25 08:09:04;;;;;;;14.43;9.17;;;15.90;94.40;;;;;;5061149;28;20282;-78
2021/04/25 08:11:30;;;;;;;16.70;7.93;;;15.90;93.20;;;;;;5078041;28;20181;-78
2021/04/25 08:13:55;;;;;;;12.67;8.60;;;16.20;92.80;;;;;;5061394;28;20216;-78
2021/04/25 08:16:21;;;;;;;11.73;8.40;;;16.50;91.00;;;;;;5079369;28;20177;-78
2021/04/25 08:18:47;;;;;;;12.63;8.53;;;16.70;90.00;;;;;;5079333;28;20662;-78
2021/04/25 08:21:12;;;;;;;13.23;8.50;;;16.80;88.60;;;;;;5079030;28;20192;-78
2021/04/25 08:23:40;;;;;;;10.57;7.77;;;17.30;86.90;;;;;;5077867;28;20173;-78
2021/04/25 08:26:06;;;;;;;11.43;8.30;;;17.70;84.70;;;;;;5080053;28;20256;-78
2021/04/25 08:28:32;;;;;;;11.07;8.47;;;17.90;81.70;;;;;;5064014;28;20243;-79
2021/04/25 08:30:58;;;;;;;12.23;8.10;;;18.10;81.20;;;;;;5069475;28;20183;-80
2021/04/25 08:33:23;;;;;;;10.70;7.80;;;17.30;77.70;;;;;;5086865;28;20205;-79
2021/04/25 08:35:49;;;;;;;8.83;7.93;;;17.40;79.80;;;;;;5086622;28;20177;-79
2021/04/25 08:38:15;;;;;;;12.97;8.40;;;17.50;78.90;;;;;;5068337;28;20178;-79
2021/04/25 08:40:41;;;;;;;9.73;8.27;;;17.80;75.70;;;;;;5086539;28;20181;-79
2021/04/25 08:43:11;;;;;;;13.40;8.80;;;18.00;74.30;;;;;;5084913;28;20192;-77
2021/04/25 08:45:37;;;;;;;12.27;8.80;;;17.40;74.20;;;;;;5063419;28;20628;-77
2021/04/25 08:48:05;;;;;;;17.17;9.57;;;17.50;79.20;;;;;;5081576;28;20196;-77
2021/04/25 08:50:32;;;;;;;10.67;8.90;;;17.90;77.20;;;;;;5084600;28;20184;-78
2021/04/25 08:52:59;;;;;;;9.17;7.90;;;18.00;75.00;;;;;;5068418;28;20658;-79
2021/04/25 08:55:25;;;;;;;12.23;9.00;;;18.20;76.80;;;;;;5086932;28;20173;-79
2021/04/25 08:57:51;;;;;;;12.63;9.37;;;18.20;72.30;;;;;;5086862;28;20232;-79
2021/04/25 09:00:20;;;;;;;12.77;9.20;;;18.40;75.60;;;;;;5085131;28;20203;-79
2021/04/25 09:02:46;;;;;;;11.13;8.93;;;17.90;72.50;;;;;;5086325;28;20492;-79
2021/04/25 09:05:13;;;;;;;12.80;9.57;;;17.80;73.30;;;;;;5067267;28;20706;-78
2021/04/25 09:07:58;;;;;;;10.30;8.57;;;18.00;77.30;;;;;;5081329;28;20639;-78
2021/04/25 09:10:31;;;;;;;11.73;9.13;;;18.10;71.90;;;;;;5064820;28;20200;-78
2021/04/25 09:12:57;;;;;;;12.20;9.47;;;18.10;73.30;;;;;;5082297;28;20668;-77
2021/04/25 09:15:28;;;;;;;14.87;10.10;;;18.20;72.50;;;;;;5086821;28;20165;-78
2021/04/25 09:18:00;;;;;;;12.73;8.57;;;18.10;74.30;;;;;;5076242;28;20165;-78
2021/04/25 09:20:45;;;;;;;10.70;8.80;;;17.90;71.40;;;;;;5096945;28;20191;-78
2021/04/25 09:23:20;;;;;;;14.00;9.27;;;18.10;74.20;;;;;;5074914;28;20165;-78
2021/04/25 09:26:06;;;;;;;13.77;9.50;;;17.90;72.30;;;;;;5064872;28;20180;-77
2021/04/25 09:28:32;;;;;;;11.43;8.83;;;17.70;71.00;;;;;;5082922;28;20683;-77
2021/04/25 09:31:11;;;;;;;13.37;9.73;;;17.30;74.00;;;;;;5064549;28;20184;-78
2021/04/25 09:33:56;;;;;;;10.10;8.67;;;17.60;72.70;;;;;;5083379;28;20283;-78
2021/04/25 09:36:28;;;;;;;13.47;9.33;;;17.90;68.80;;;;;;5082684;28;20683;-78
2021/04/25 09:39:07;;;;;;;11.30;9.53;;;17.70;68.70;;;;;;5082093;28;20216;-78
2021/04/25 09:41:33;;;;;;;14.07;9.57;;;17.60;69.10;;;;;;5083222;28;20161;-78
2021/04/25 09:44:00;;;;;;;11.27;9.00;;;17.70;67.00;;;;;;5083089;28;20683;-78
2021/04/25 09:46:50;;;;;;;12.90;9.17;;;18.00;70.30;;;;;;5065505;28;20272;-77
2021/04/25 09:49:38;;;;;;;13.73;9.43;;;18.40;67.60;;;;;;5065240;28;20211;-78
2021/04/25 09:52:05;;;;;;;12.93;9.53;;;18.10;69.00;;;;;;5063776;28;20301;-75
2021/04/25 09:54:32;;;;;;;10.63;9.00;;;18.00;69.00;;;;;;5075552;28;20197;-76
2021/04/25 09:56:58;;;;;;;11.63;9.87;;;18.10;68.00;;;;;;5057682;28;20188;-77
2021/04/25 09:59:24;;;;;;;15.50;8.57;;;18.30;67.90;;;;;;5075888;28;20274;-77
2021/04/25 10:02:06;;;;;;;11.87;8.40;;;17.90;64.00;;;;;;5075856;28;20206;-77
2021/04/25 10:04:38;;;;;;;11.70;9.20;;;17.90;64.70;;;;;;5075827;28;20527;-77
2021/04/25 10:07:10;;;;;;;13.47;9.13;;;18.00;68.10;;;;;;5076605;28;20182;-77
2021/04/25 10:09:36;;;;;;;11.97;8.90;;;18.00;67.10;;;;;;5075155;28;20195;-77
2021/04/25 10:12:03;;;;;;;13.27;8.87;;;17.90;63.70;;;;;;5075465;28;20672;-77
2021/04/25 10:14:31;;;;;;;10.43;8.07;;;18.30;66.30;;;;;;5074745;28;20202;-77
2021/04/25 10:16:58;;;;;;;13.40;8.53;;;17.90;68.80;;;;;;5075455;28;20180;-77
2021/04/25 10:19:24;;;;;;;10.93;8.37;;;18.40;66.30;;;;;;5057413;28;20694;-77
2021/04/25 10:21:51;;;;;;;12.47;8.67;;;18.60;62.90;;;;;;5075210;28;20580;-77
2021/04/25 10:24:21;;;;;;;14.67;9.13;;;18.60;59.80;;;;;;5074744;28;20195;-77
2021/04/25 10:27:08;;;;;;;12.10;8.43;;;18.40;62.00;;;;;;5062727;28;20200;-77
2021/04/25 10:30:07;;;;;;;10.13;7.63;;;18.50;63.60;;;;;;5076902;28;20230;-77
2021/04/25 10:32:35;;;;;;;11.43;8.37;;;18.50;61.80;;;;;;5051080;28;20249;-77
2021/04/25 10:35:20;;;;;;;8.90;7.77;;;18.60;60.70;;;;;;5100561;28;20544;-79
2021/04/25 10:37:48;;;;;;;10.80;8.67;;;18.80;61.30;;;;;;5100913;28;20190;-78
2021/04/25 10:40:23;;;;;;;10.73;7.90;;;18.40;59.40;;;;;;5079100;28;20193;-78
2021/04/25 10:42:54;;;;;;;14.10;7.63;;;18.30;62.10;;;;;;5079520;28;20268;-78
2021/04/25 10:45:25;;;;;;;13.07;8.57;;;18.70;60.70;;;;;;5083111;28;20640;-78
2021/04/25 10:48:22;;;;;;;11.73;8.60;;;18.80;63.10;;;;;;5099025;28;20191;-78
2021/04/25 10:50:50;;;;;;;12.77;8.17;;;18.90;60.70;;;;;;5082520;28;20255;-77
2021/04/25 10:53:25;;;;;;;10.87;8.10;;;18.70;61.40;;;;;;5095270;28;20198;-77
2021/04/25 10:56:15;;;;;;;11.37;7.80;;;18.70;62.60;;;;;;5094459;28;20299;-77
2021/04/25 10:58:46;;;;;;;13.80;7.80;;;19.00;63.60;;;;;;5076303;28;20206;-78
2021/04/25 11:01:39;;;;;;;10.03;7.57;;;19.40;59.30;;;;;;5095796;28;20178;-77
2021/04/25 11:04:05;;;;;;;13.80;8.80;;;19.30;61.20;;;;;;5083876;28;20194;-77
2021/04/25 11:06:30;;;;;;;11.03;8.27;;;19.30;59.60;;;;;;5076354;28;20224;-76
2021/04/25 11:08:57;;;;;;;12.53;8.37;;;19.20;60.00;;;;;;5095134;28;20233;-77
2021/04/25 11:11:39;;;;;;;9.77;8.00;;;19.30;59.40;;;;;;5078241;28;20177;-77
2021/04/25 11:14:06;;;;;;;11.77;8.63;;;19.40;60.60;;;;;;5078691;28;20193;-78
2021/04/25 11:16:33;;;;;;;10.67;7.77;;;19.50;59.30;;;;;;5095965;28;20538;-77
2021/04/25 11:19:10;;;;;;;11.87;8.23;;;19.40;60.20;;;;;;5095828;28;20194;-77
2021/04/25 11:21:53;;;;;;;14.07;8.67;;;19.50;60.00;;;;;;5095874;28;20560;-77
2021/04/25 11:24:22;;;;;;;9.93;8.10;;;19.50;57.20;;;;;;5096223;28;20200;-77
2021/04/25 11:26:53;;;;;;;11.50;8.43;;;19.30;61.40;;;;;;5097364;28;20178;-77
2021/04/25 11:29:23;;;;;;;9.80;8.00;;;19.80;59.00;;;;;;5097089;28;20194;-77
2021/04/25 11:31:55;;;;;;;9.47;7.53;;;20.00;60.50;;;;;;5079054;28;20181;-78
2021/04/25 11:34:34;;;;;;;10.70;8.33;;;20.30;55.90;;;;;;5079089;28;20188;-78
2021/04/25 11:37:05;;;;;;;9.87;7.30;;;20.40;56.70;;;;;;5101065;28;20170;-78
2021/04/25 11:39:39;;;;;;;8.87;7.53;;;20.60;55.50;;;;;;5099671;28;20657;-78
2021/04/25 11:42:06;;;;;;;12.60;7.50;;;20.70;53.90;;;;;;5098264;28;20167;-77
2021/04/25 11:44:41;;;;;;;9.00;7.17;;;20.60;55.00;;;;;;5081739;28;20207;-78
2021/04/25 11:47:15;;;;;;;9.80;7.33;;;20.80;55.70;;;;;;5076534;28;20178;-77
2021/04/25 11:49:43;;;;;;;12.60;8.43;;;21.20;55.30;;;;;;5096203;28;20193;-78
2021/04/25 11:52:18;;;;;;;10.30;8.23;;;21.30;50.60;;;;;;5095927;28;20223;-78
2021/04/25 11:54:46;;;;;;;13.40;8.43;;;20.20;52.70;;;;;;5101765;28;20178;-78
2021/04/25 11:57:22;;;;;;;13.70;9.50;;;20.20;58.20;;;;;;5084979;28;20284;-79
2021/04/25 11:59:57;;;;;;;10.80;8.50;;;20.70;58.20;;;;;;5100359;28;20192;-79
2021/04/25 12:02:25;;;;;;;12.20;8.43;;;21.20;56.70;;;;;;5077842;28;20640;-77
2021/04/25 12:04:53;;;;;;;12.27;9.17;;;21.40;52.70;;;;;;5094148;28;20602;-78
2021/04/25 12:07:42;;;;;;;11.40;8.47;;;21.20;52.20;;;;;;5077014;28;20179;-78
2021/04/25 12:10:33;;;;;;;11.83;8.93;;;21.30;53.00;;;;;;5096791;28;20304;-78
2021/04/25 12:13:04;;;;;;;12.63;9.13;;;22.20;54.40;;;;;;5087701;28;20193;-78
2021/04/25 12:15:36;;;;;;;13.97;8.87;;;22.50;52.60;;;;;;5077399;28;20187;-77
2021/04/25 12:18:02;;;;;;;15.87;9.70;;;22.20;51.80;;;;;;5075772;28;20221;-76
2021/04/25 12:20:28;;;;;;;10.70;8.47;;;22.20;53.40;;;;;;5094241;28;20274;-77
2021/04/25 12:22:54;;;;;;;10.53;8.83;;;22.10;51.70;;;;;;5094727;28;20657;-77
2021/04/25 12:25:21;;;;;;;14.57;9.23;;;21.60;52.90;;;;;;5095758;28;20175;-78
2021/04/25 12:27:55;;;;;;;12.57;9.17;;;21.70;53.60;;;;;;5095617;28;20279;-77
2021/04/25 12:30:23;;;;;;;13.00;9.13;;;22.40;54.00;;;;;;5102895;28;20190;-77
2021/04/25 12:33:12;;;;;;;13.70;9.70;;;22.80;53.20;;;;;;5097852;28;20171;-77
2021/04/25 12:35:50;;;;;;;9.80;8.50;;;23.10;52.40;;;;;;5096588;28;20181;-77
2021/04/25 12:38:21;;;;;;;13.87;8.53;;;23.50;53.20;;;;;;5094651;28;20207;-77
2021/04/25 12:40:54;;;;;;;10.70;8.10;;;23.80;50.30;;;;;;5093544;28;20236;-77
2021/04/25 12:43:20;;;;;;;10.57;8.43;;;23.80;50.70;;;;;;5093580;28;20192;-77
2021/04/25 12:45:46;;;;;;;10.23;9.13;;;23.80;51.00;;;;;;5093316;28;20260;-77
2021/04/25 12:48:34;;;;;;;14.87;8.77;;;23.50;48.50;;;;;;5093358;28;20265;-77